ADDS METAR Data INFO
IDs: Format: Raw Decoded Include TAF

Data at: 0209 UTC 14 Dec 2017

KITR 140153Z AUTO 31004KT 10SM BKN120 03/M10 A3005 RMK AO2 SLP174 T00281100
KITR 140053Z AUTO 28004KT 10SM BKN120 00/M11 A3003 RMK AO2 SLP170 T00001111
KITR 132353Z AUTO 33007KT 10SM CLR 06/M10 A3001 RMK AO2 SLP159 T00611100 10122 20061 53004
KITR 132253Z AUTO 35011G18KT 10SM CLR 10/M09 A2999 RMK AO2 SLP156 T01001094
KITR 132153Z AUTO 35014G23KT 10SM CLR 11/M09 A3000 RMK AO2 PK WND 35026/2106 SLP150 T01111094
KITR 132053Z AUTO 34013G26KT 10SM CLR 12/M11 A2999 RMK AO2 PK WND 35030/1955 SLP150 T01171106 56026
KITR 131953Z AUTO 35018G29KT 10SM CLR 12/M11 A3002 RMK AO2 PK WND 33033/1923 SLP162 T01171106
KITR 131853Z AUTO 34021G32KT 10SM CLR 12/M10 A3005 RMK AO2 PK WND 34034/1802 SLP165 T01171100
KITR 131753Z AUTO 35021G33KT 10SM CLR 11/M09 A3008 RMK AO2 PK WND 36036/1724 SLP177 T01111094 10111 20039 58009
KITR 131653Z AUTO 34020G31KT 10SM CLR 10/M09 A3012 RMK AO2 PK WND 35034/1619 SLP192 T01001089
KITR 131553Z AUTO 32011KT 10SM CLR 08/M10 A3011 RMK AO2 SLP193 T00831100
KITR 131453Z AUTO 32011KT 10SM CLR 05/M11 A3011 RMK AO2 SLP195 T00501111 52018
KITR 131353Z AUTO 33012KT 10SM CLR 07/M12 A3009 RMK AO2 SLP186 T00721117
KITR 131253Z AUTO 34015G23KT 10SM CLR 08/M12 A3007 RMK AO2 SLP178 T00781117
KITR 131153Z AUTO 33012KT 10SM CLR 04/M12 A3005 RMK AO2 SLP169 T00441117 10044 21017 53013
KITR 131053Z AUTO 30008KT 10SM CLR M01/M12 A3003 RMK AO2 SLP159 T10111117
KITR 130953Z AUTO 31012KT 10SM CLR 02/M11 A3001 RMK AO2 SLP143 T00171106
KITR 130853Z AUTO 30009KT 10SM CLR 01/M10 A3001 RMK AO2 SLP142 T00111100 53001
KITR 130753Z AUTO 26008KT 10SM CLR M01/M09 A2999 RMK AO2 SLP142 T10061094
KITR 130653Z AUTO 26008KT 10SM CLR 03/M08 A2999 RMK AO2 SLP137 T00331083 401891083
KITR 130553Z AUTO 25010KT 10SM CLR 03/M09 A3000 RMK AO2 SLP145 T00281094 10089 20028 58018
KITR 130453Z AUTO 25011KT 10SM CLR 03/M10 A3003 RMK AO2 SLP156 T00281100
KITR 130353Z AUTO 26010KT 10SM CLR 03/M09 A3005 RMK AO2 SLP172 T00331094
KITR 130253Z AUTO 25009KT 10SM CLR 05/M09 A3006 RMK AO2 SLP187 T00501094 58013
KITR 130153Z AUTO 24008KT 10SM CLR 04/M09 A3008 RMK AO2 SLP203 T00391094
KITR 130053Z AUTO 23008KT 10SM CLR 04/M09 A3009 RMK AO2 SLP211 T00441094
KITR 122353Z AUTO 23005KT 10SM CLR 09/M09 A3011 RMK AO2 SLP208 T00891094 10189 20078 56018
KITR 122253Z AUTO 30004KT 10SM CLR 16/M09 A3012 RMK AO2 SLP200 T01611089
KITR 122153Z AUTO 31010KT 10SM CLR 19/M09 A3014 RMK AO2 SLP202 T01891089
KITR 122053Z AUTO 34008KT 10SM CLR 18/M09 A3017 RMK AO2 SLP212 T01831089 56033
KITR 121953Z AUTO 30011G18KT 10SM CLR 18/M08 A3020 RMK AO2 SLP227 T01781078
KITR 121904Z AUTO 31010KT 10SM CLR 17/M08 A3023 RMK AO2 T01721083
KITR 121853Z AUTO 33008KT 1 3/4SM HZ CLR 17/M08 A3024 RMK AO2 SLP241 T01721083
KITR 121850Z AUTO 32009KT 1 3/4SM HZ CLR 17/M08 A3024 RMK AO2
KITR 121753Z AUTO 32011KT 10SM CLR 15/M08 A3028 RMK AO2 SLP258 T01501083 10156 21072 58011
KITR 121653Z AUTO 30008KT 10SM CLR 13/M08 A3031 RMK AO2 SLP263 T01331083
KITR 121553Z AUTO 27009KT 10SM CLR 08/M09 A3032 RMK AO2 SLP272 T00781094
KITR 121453Z AUTO 26008KT 10SM CLR 00/M11 A3032 RMK AO2 SLP283 T00001106 56013